createdAt,value
2018-11-21T00:02:15.323Z,35.20
2018-11-21T00:05:04.605Z,35.30
2018-11-21T00:07:53.834Z,35.17
2018-11-21T00:10:42.839Z,35.60
2018-11-21T00:14:08.116Z,34.13
2018-11-21T00:17:14.798Z,35.00
2018-11-21T00:20:21.241Z,34.40
2018-11-21T00:23:10.230Z,35.00
2018-11-21T00:28:51.849Z,34.70
2018-11-21T00:31:40.824Z,33.30
2018-11-21T00:34:30.390Z,34.53
2018-11-21T00:37:20.221Z,34.27
2018-11-21T00:40:28.961Z,35.50
2018-11-21T00:43:18.214Z,35.50
2018-11-21T00:48:58.647Z,34.90
2018-11-21T00:51:47.635Z,36.80
2018-11-21T00:57:51.856Z,36.83
2018-11-21T01:00:46.311Z,34.40
2018-11-21T01:03:31.703Z,38.20
2018-11-21T01:10:24.569Z,37.77
2018-11-21T01:13:13.564Z,37.87
2018-11-21T01:16:02.550Z,37.60
2018-11-21T01:19:09.028Z,39.13
2018-11-21T01:21:58.296Z,37.60
2018-11-21T01:28:02.289Z,37.50
2018-11-21T01:30:51.566Z,37.60
2018-11-21T01:33:40.959Z,36.13
2018-11-21T01:36:29.944Z,37.50
2018-11-21T01:39:18.920Z,37.57
2018-11-21T01:42:07.901Z,38.77
2018-11-21T01:44:56.879Z,37.87
2018-11-21T01:48:05.180Z,36.93
2018-11-21T01:50:54.195Z,36.90
2018-11-21T01:54:00.867Z,36.63
2018-11-21T01:59:43.145Z,38.77
2018-11-21T02:02:32.511Z,36.20
2018-11-21T02:05:21.523Z,39.37
2018-11-21T02:08:10.879Z,38.13
2018-11-21T02:13:52.515Z,38.03
2018-11-21T02:19:52.844Z,37.30
2018-11-21T02:22:41.811Z,38.47
2018-11-21T02:25:31.128Z,37.03
2018-11-21T02:28:20.639Z,37.20
2018-11-21T02:31:09.636Z,37.97
2018-11-21T02:33:41.303Z,38.47
2018-11-21T02:36:30.540Z,36.60
2018-11-21T02:39:19.810Z,38.00
2018-11-21T02:41:49.969Z,35.87
2018-11-21T02:48:29.610Z,35.77
2018-11-21T02:51:17.251Z,37.57
2018-11-21T02:53:47.589Z,37.73
2018-11-21T02:56:55.621Z,35.70
2018-11-21T02:59:44.743Z,35.17
2018-11-21T03:03:10.303Z,36.00
2018-11-21T03:05:59.574Z,38.80
2018-11-21T03:08:49.075Z,34.83
2018-11-21T03:11:38.064Z,37.20
2018-11-21T03:15:03.651Z,36.80
2018-11-21T03:17:52.620Z,35.20
2018-11-21T03:20:41.603Z,36.73
2018-11-21T03:23:30.890Z,38.30
2018-11-21T03:26:21.074Z,35.60
2018-11-21T03:31:58.148Z,36.60
2018-11-21T03:35:04.827Z,37.93
2018-11-21T03:44:05.403Z,35.20
2018-11-21T03:46:54.400Z,36.27
2018-11-21T03:49:43.381Z,36.83
2018-11-21T03:52:32.380Z,36.53
2018-11-21T03:55:21.594Z,35.60
2018-11-21T03:58:28.316Z,35.97
2018-11-21T04:04:25.455Z,36.17
2018-11-21T04:07:12.987Z,37.57
2018-11-21T04:10:01.989Z,36.33
2018-11-21T04:12:50.980Z,34.90
2018-11-21T04:15:39.967Z,36.63
2018-11-21T04:18:29.252Z,34.83
2018-11-21T04:24:09.621Z,36.37
2018-11-21T04:26:58.624Z,35.73
2018-11-21T04:29:47.612Z,37.60
2018-11-21T04:35:26.027Z,34.57
2018-11-21T04:38:15.040Z,36.30
2018-11-21T04:41:43.405Z,34.10
2018-11-21T04:44:32.397Z,33.63
2018-11-21T04:53:12.483Z,34.23
2018-11-21T04:56:01.479Z,36.57
2018-11-21T04:58:50.504Z,35.20
2018-11-21T05:01:20.749Z,33.80
2018-11-21T05:04:09.989Z,34.10
2018-11-21T05:06:59.017Z,35.80
2018-11-21T05:12:41.075Z,37.57
2018-11-21T05:15:30.060Z,36.30
2018-11-21T05:18:36.717Z,37.43
2018-11-21T05:21:25.770Z,37.00
2018-11-21T05:27:10.436Z,35.27
2018-11-21T05:29:59.419Z,35.87
2018-11-21T05:35:45.775Z,35.80
2018-11-21T05:38:34.750Z,34.47
2018-11-21T05:41:41.410Z,34.93
2018-11-21T05:48:10.633Z,35.80
2018-11-21T05:50:59.667Z,38.73
2018-11-21T05:53:48.661Z,37.93
2018-11-21T05:56:37.939Z,37.63
2018-11-21T06:02:18.189Z,36.07
2018-11-21T06:05:07.683Z,35.30
2018-11-21T06:07:57.011Z,39.90
2018-11-21T06:10:45.990Z,37.60
2018-11-21T06:13:36.985Z,37.77
2018-11-21T06:19:13.814Z,37.10
2018-11-21T06:24:51.249Z,34.83
2018-11-21T06:27:33.401Z,38.73
2018-11-21T06:30:15.276Z,38.50
2018-11-21T06:36:12.372Z,37.90
2018-11-21T06:42:39.123Z,37.83
2018-11-21T06:48:16.184Z,37.73
2018-11-21T06:50:46.228Z,38.53
2018-11-21T06:53:55.566Z,36.67
2018-11-21T07:00:29.088Z,35.73
2018-11-21T07:03:18.089Z,37.60
2018-11-21T07:06:07.066Z,35.53
2018-11-21T07:11:53.689Z,35.33
2018-11-21T07:14:42.691Z,37.43
2018-11-21T07:20:41.227Z,37.40
2018-11-21T07:23:30.499Z,36.10
2018-11-21T07:26:20.012Z,35.33
2018-11-21T07:29:11.772Z,36.93
2018-11-21T07:32:03.910Z,35.43
2018-11-21T07:34:52.951Z,35.03
2018-11-21T07:37:42.332Z,35.47
2018-11-21T07:44:03.694Z,36.10
2018-11-21T07:46:52.926Z,34.13
2018-11-21T07:56:32.318Z,35.47
2018-11-21T08:02:21.482Z,33.00
2018-11-21T08:05:15.950Z,33.00
2018-11-21T08:08:06.330Z,34.33
2018-11-21T08:14:43.784Z,33.77
2018-11-21T08:20:54.294Z,31.90
2018-11-21T08:24:00.659Z,33.60
2018-11-21T08:27:08.461Z,30.60
2018-11-21T08:29:57.447Z,31.37
2018-11-21T08:39:01.444Z,32.30
2018-11-21T08:42:09.458Z,33.47
2018-11-21T08:44:58.432Z,32.37
2018-11-21T08:47:47.423Z,28.70
2018-11-21T08:50:36.426Z,28.00
2018-11-21T08:53:25.401Z,28.40
2018-11-21T08:56:14.767Z,27.93
2018-11-21T08:59:04.011Z,30.30
2018-11-21T09:08:42.427Z,26.43
2018-11-21T09:11:31.432Z,26.20
2018-11-21T09:14:20.732Z,27.53
2018-11-21T09:17:09.708Z,28.73
2018-11-21T09:23:14.352Z,26.87
2018-11-21T09:26:20.899Z,26.00
2018-11-21T09:29:09.951Z,25.47
2018-11-21T09:31:58.954Z,27.67
2018-11-21T09:34:47.932Z,26.17
2018-11-21T09:37:37.171Z,26.17
2018-11-21T09:40:26.199Z,26.77
2018-11-21T09:43:15.472Z,25.33
2018-11-21T09:46:04.500Z,23.97
2018-11-21T09:49:12.515Z,27.00
2018-11-21T09:52:01.527Z,28.27
2018-11-21T09:54:50.758Z,25.57
2018-11-21T09:57:40.417Z,26.70
2018-11-21T10:00:49.865Z,25.50
2018-11-21T10:03:22.127Z,26.17
2018-11-21T10:06:12.833Z,25.60
2018-11-21T10:09:07.445Z,23.63
2018-11-21T10:11:56.429Z,25.40
2018-11-21T10:14:45.434Z,23.17
2018-11-21T10:17:34.684Z,25.20
2018-11-21T10:20:41.515Z,23.57
2018-11-21T10:23:30.795Z,22.53
2018-11-21T10:26:20.714Z,22.80
2018-11-21T10:29:09.703Z,23.07
2018-11-21T10:31:58.306Z,22.30
2018-11-21T10:37:36.697Z,25.40
2018-11-21T10:40:26.911Z,21.77
2018-11-21T10:43:16.184Z,23.23
2018-11-21T10:49:32.309Z,23.07
2018-11-21T10:52:21.572Z,23.77
2018-11-21T10:55:10.805Z,23.30
2018-11-21T10:57:59.304Z,23.57
2018-11-21T11:00:48.083Z,22.10
2018-11-21T11:03:56.194Z,22.07
2018-11-21T11:07:03.917Z,21.40
2018-11-21T11:10:11.722Z,22.00
2018-11-21T11:13:19.507Z,22.00
2018-11-21T11:16:27.315Z,22.43
2018-11-21T11:19:35.079Z,22.13
2018-11-21T11:22:42.844Z,21.80
2018-11-21T11:25:33.053Z,21.40
2018-11-21T11:31:33.394Z,20.70
2018-11-21T11:34:42.802Z,21.60
2018-11-21T11:37:42.421Z,21.40
2018-11-21T11:40:50.203Z,22.27
2018-11-21T11:43:39.255Z,20.90
2018-11-21T11:46:48.228Z,22.03
2018-11-21T11:49:58.547Z,19.87
2018-11-21T11:53:06.338Z,20.20
2018-11-21T11:56:14.150Z,19.37
2018-11-21T12:05:25.596Z,20.37
2018-11-21T12:08:33.375Z,17.60
2018-11-21T12:12:04.757Z,19.50
2018-11-21T12:15:02.339Z,19.93
2018-11-21T12:18:10.117Z,18.90
2018-11-21T12:21:17.908Z,19.90
2018-11-21T12:24:25.928Z,19.23
2018-11-21T12:27:33.759Z,19.37
2018-11-21T12:30:41.529Z,20.17
2018-11-21T12:33:49.305Z,21.20
2018-11-21T12:36:57.405Z,18.20
2018-11-21T12:40:05.256Z,18.57
2018-11-21T12:43:04.985Z,17.03
2018-11-21T12:46:12.762Z,17.37
2018-11-21T12:49:20.547Z,17.67
2018-11-21T12:52:28.340Z,18.57
2018-11-21T12:55:24.138Z,19.50
2018-11-21T12:58:31.956Z,18.87
2018-11-21T13:05:00.054Z,17.23
2018-11-21T13:08:07.829Z,16.07
2018-11-21T13:11:15.601Z,16.93
2018-11-21T13:14:06.135Z,17.20
2018-11-21T13:17:13.905Z,17.40
2018-11-21T13:20:21.687Z,18.37
2018-11-21T13:23:29.461Z,18.43
2018-11-21T13:26:54.707Z,19.77
2018-11-21T13:30:02.788Z,18.60
2018-11-21T13:36:28.280Z,17.50
2018-11-21T13:39:36.062Z,17.37
2018-11-21T13:42:44.117Z,18.77
2018-11-21T13:45:34.702Z,18.47
2018-11-21T13:48:42.464Z,19.10
2018-11-21T13:51:50.480Z,20.93
2018-11-21T13:54:39.728Z,20.50
2018-11-21T13:57:29.312Z,21.57
2018-11-21T14:00:18.305Z,21.63
2018-11-21T14:06:22.192Z,21.40
2018-11-21T14:12:21.399Z,21.90
2018-11-21T14:15:10.392Z,21.20
2018-11-21T14:17:59.376Z,20.30
2018-11-21T14:20:48.710Z,21.33
2018-11-21T14:23:37.692Z,23.00
2018-11-21T14:26:26.687Z,22.13
2018-11-21T14:29:15.964Z,22.20
2018-11-21T14:32:05.333Z,22.80
2018-11-21T14:34:55.143Z,21.40
2018-11-21T14:40:22.740Z,20.07
2018-11-21T14:43:11.786Z,20.80
2018-11-21T14:46:01.172Z,22.57
2018-11-21T14:48:49.566Z,23.10
2018-11-21T14:51:38.884Z,19.80
2018-11-21T14:54:27.873Z,21.13
2018-11-21T14:57:16.860Z,22.77
2018-11-21T15:02:59.551Z,20.80
2018-11-21T15:05:48.567Z,21.47
2018-11-21T15:08:37.814Z,21.00
2018-11-21T15:11:26.787Z,21.10
2018-11-21T15:14:15.800Z,21.40
2018-11-21T15:17:04.779Z,20.70
2018-11-21T15:19:53.807Z,21.50
2018-11-21T15:22:42.782Z,23.63
2018-11-21T15:32:01.166Z,24.00
2018-11-21T15:37:52.366Z,23.30
2018-11-21T15:40:46.919Z,22.53
2018-11-21T15:43:30.624Z,22.57
2018-11-21T15:46:19.641Z,21.93
2018-11-21T15:49:09.049Z,23.40
2018-11-21T15:52:01.494Z,21.13
2018-11-21T15:54:48.039Z,22.17
2018-11-21T15:57:37.391Z,23.47
2018-11-21T16:00:31.039Z,22.30
2018-11-21T16:03:20.051Z,23.57
2018-11-21T16:09:08.927Z,25.83
2018-11-21T16:11:57.919Z,26.60
2018-11-21T16:14:46.909Z,25.83
2018-11-21T16:17:35.911Z,28.07
2018-11-21T16:20:24.930Z,30.10
2018-11-21T16:23:13.959Z,42.73
2018-11-21T16:26:02.942Z,29.00
2018-11-21T16:28:52.751Z,29.70
2018-11-21T16:31:42.011Z,31.03
2018-11-21T16:34:30.984Z,31.40
2018-11-21T16:37:21.359Z,32.20
2018-11-21T16:43:23.634Z,33.10
2018-11-21T16:46:12.624Z,31.83
2018-11-21T16:49:01.845Z,33.30
2018-11-21T16:51:51.113Z,32.30
2018-11-21T16:54:40.122Z,33.30
2018-11-21T16:57:29.383Z,33.30
2018-11-21T17:03:09.749Z,33.20
2018-11-21T17:05:59.002Z,35.43
2018-11-21T17:08:48.227Z,34.13
2018-11-21T17:15:15.276Z,33.73
2018-11-21T17:18:04.257Z,31.00
2018-11-21T17:21:10.805Z,31.33
2018-11-21T17:24:00.123Z,33.07
2018-11-21T17:26:49.481Z,33.80
2018-11-21T17:29:37.987Z,33.20
2018-11-21T17:35:59.139Z,33.90
2018-11-21T17:38:40.277Z,33.27
2018-11-21T17:41:21.729Z,37.50
2018-11-21T17:44:03.199Z,35.63
2018-11-21T17:46:44.694Z,36.70
2018-11-21T17:49:26.287Z,37.87
2018-11-21T17:52:08.155Z,38.83
2018-11-21T17:55:08.331Z,37.90
2018-11-21T17:57:50.052Z,38.57
2018-11-21T18:00:32.060Z,35.50
2018-11-21T18:03:13.914Z,37.17
2018-11-21T18:05:55.208Z,38.00
2018-11-21T18:08:36.476Z,37.17
2018-11-21T18:14:43.190Z,35.77
2018-11-21T18:17:24.784Z,38.60
2018-11-21T18:20:06.164Z,39.60
2018-11-21T18:22:48.167Z,38.80
2018-11-21T18:25:33.969Z,37.87
2018-11-21T18:28:15.144Z,39.67
2018-11-21T18:30:56.964Z,40.50
2018-11-21T18:33:38.090Z,40.33
2018-11-21T18:36:21.638Z,36.07
2018-11-21T18:39:02.839Z,37.23
2018-11-21T18:41:44.120Z,36.27
2018-11-21T18:44:14.101Z,36.00
2018-11-21T18:47:03.064Z,37.37
2018-11-21T18:49:52.069Z,37.67
2018-11-21T18:55:51.079Z,40.47
2018-11-21T19:02:14.451Z,40.10
2018-11-21T19:05:03.570Z,41.00
2018-11-21T19:07:52.876Z,37.67
2018-11-21T19:13:43.624Z,41.30
2018-11-21T19:16:32.595Z,41.20
2018-11-21T19:22:56.756Z,41.50
2018-11-21T19:25:46.063Z,40.20
2018-11-21T19:31:37.982Z,40.40
2018-11-21T19:34:26.979Z,41.63
2018-11-21T19:37:16.276Z,42.90
2018-11-21T19:40:04.404Z,42.13
2018-11-21T19:46:38.311Z,43.60
2018-11-21T19:49:33.150Z,41.57
2018-11-21T19:58:04.360Z,42.30
2018-11-21T20:01:10.799Z,44.10
2018-11-21T20:03:59.793Z,41.43
2018-11-21T20:06:48.829Z,42.00
2018-11-21T20:09:37.902Z,42.20
2018-11-21T20:12:26.823Z,40.97
2018-11-21T20:15:17.502Z,41.17
2018-11-21T20:18:07.581Z,43.20
2018-11-21T20:20:56.577Z,43.67
2018-11-21T20:23:45.547Z,40.17
2018-11-21T20:30:27.612Z,42.03
2018-11-21T20:33:16.851Z,41.90
2018-11-21T20:36:06.017Z,40.10
2018-11-21T20:38:55.639Z,41.40
2018-11-21T20:41:44.669Z,41.20
2018-11-21T20:44:33.649Z,39.27
2018-11-21T20:47:22.626Z,39.50
2018-11-21T20:53:25.282Z,42.23
2018-11-21T20:56:14.291Z,41.07
2018-11-21T21:02:04.887Z,42.03
2018-11-21T21:04:34.976Z,42.33
2018-11-21T21:07:24.758Z,42.30
2018-11-21T21:10:32.622Z,40.90
2018-11-21T21:13:21.878Z,45.53
2018-11-21T21:16:10.882Z,41.10
2018-11-21T21:18:59.860Z,43.53
2018-11-21T21:21:48.833Z,42.77
2018-11-21T21:24:38.092Z,41.00
2018-11-21T21:27:08.430Z,39.87
2018-11-21T21:29:56.533Z,42.90
2018-11-21T21:36:17.544Z,40.90
2018-11-21T21:39:09.066Z,39.90
2018-11-21T21:41:58.038Z,41.30
2018-11-21T21:48:01.849Z,42.50
2018-11-21T21:51:10.122Z,41.70
2018-11-21T21:53:59.167Z,39.40
2018-11-21T21:56:48.906Z,41.00
2018-11-21T22:05:34.914Z,40.63
2018-11-21T22:08:16.575Z,41.30
2018-11-21T22:10:57.742Z,40.70
2018-11-21T22:17:20.671Z,39.90
2018-11-21T22:20:02.195Z,39.17
2018-11-21T22:26:10.140Z,38.60
2018-11-21T22:32:31.132Z,39.93
2018-11-21T22:35:01.567Z,40.13
2018-11-21T22:37:51.705Z,39.90
2018-11-21T22:40:40.671Z,42.60
2018-11-21T22:43:29.647Z,39.80
2018-11-21T22:46:18.660Z,38.70
2018-11-21T22:49:25.371Z,40.70
2018-11-21T22:52:14.343Z,40.73
2018-11-21T22:55:03.781Z,37.73
2018-11-21T22:57:53.323Z,40.07
2018-11-21T23:04:07.701Z,37.67
2018-11-21T23:09:52.069Z,37.63
2018-11-21T23:19:04.528Z,40.03
2018-11-21T23:21:54.288Z,39.20
2018-11-21T23:24:43.264Z,40.03
2018-11-21T23:27:32.307Z,41.10
2018-11-21T23:30:21.338Z,38.47
2018-11-21T23:32:51.342Z,40.97
2018-11-21T23:35:40.393Z,39.97
2018-11-21T23:38:29.402Z,38.57
2018-11-21T23:40:59.718Z,40.37
2018-11-21T23:43:48.711Z,39.70
2018-11-21T23:49:30.978Z,37.90
2018-11-21T23:52:22.750Z,36.77
2018-11-21T23:58:28.309Z,37.37
